Latest Weather Observations for Goulburn Airport

IDN60801

Issued at 3:02 am EST Wednesday 28 June 2017 (issued every 30 minutes, with the page automatically refreshed every 10 minutes)

About weather observations | Map of weather stations | Latest weather observations for NSW | Other Formats
Station Details ID: 070330 Name: GOULBURN AIRPORT AWS Lat: -34.81 Lon: 149.73 Height: 640.0 m
Data from the previous 72 hours. | See also: Recent months at Goulburn Airport
Date/Time
EST
Temp
°C
App
Temp
°C
Dew
Point
°C
Rel
Hum
%
Delta-T
°C
Wind Press
QNH
hPa
Press
MSL
hPa
Rain since
9am
mm
Dir  Spd
km/h
Gust
km/h
Spd
kts
Gust
kts
28/03:00am 0.4 -1.5 0.3 99 0.0 CALM 0 0 0 0 1022.8 1023.7 0.2
28/02:30am 0.6 -1.7 0.5 99 0.0 SSW 2 7 1 4 1023.1 1024.0 0.2
28/02:00am 0.4 -1.6 0.1 98 0.1 CALM 0 0 0 0 1023.1 1024.0 0.2
28/01:30am 0.3 -1.7 -0.3 96 0.2 CALM 0 0 0 0 1022.9 1023.8 0.2
28/01:00am 2.1 -0.7 2.0 99 0.0 SSW 6 6 3 3 1022.9 1023.8 0.2
28/12:55am 2.7 0.0 2.4 98 0.1 SSW 6 6 3 3 1022.9 1023.8 0.2
28/12:30am 3.3 0.7 3.0 98 0.1 SW 6 7 3 4 1023.1 1024.0 0.2
28/12:29am 3.3 0.7 3.0 98 0.1 SW 6 7 3 4 1023.1 1024.0 0.2
28/12:00am 4.2 1.5 3.9 98 0.1 WSW 7 9 4 5 1023.6 1024.5 0.2
 
Date/Time
EST
Temp
°C
App
Temp
°C
Dew
Point
°C
Rel
Hum
%
Delta-T
°C
Wind Press
QNH
hPa
Press
MSL
hPa
Rain since
9am
mm
Dir  Spd
km/h
Gust
km/h
Spd
kts
Gust
kts
27/11:30pm 4.5 1.9 4.1 97 0.2 SW 7 9 4 5 1024.0 1024.9 0.2
27/11:00pm 4.8 3.5 4.1 95 0.3 CALM 0 0 0 0 1024.1 1025.0 0.2
27/10:30pm 6.1 5.1 5.7 97 0.2 CALM 0 0 0 0 1024.1 1025.0 0.2
27/10:00pm 5.2 4.1 4.9 98 0.1 CALM 0 4 0 2 1024.1 1025.0 0.2
27/09:30pm 5.1 3.9 4.8 98 0.1 CALM 0 0 0 0 1024.0 1024.9 0.2
27/09:00pm 4.4 2.7 4.0 97 0.2 SSE 2 7 1 4 1023.8 1024.7 0.2
27/08:30pm 4.7 3.4 4.3 97 0.2 CALM 0 0 0 0 1024.1 1025.0 0.2
27/08:00pm 4.6 3.3 3.9 95 0.3 CALM 0 0 0 0 1024.2 1025.1 0.2
27/07:30pm 5.1 2.7 4.5 96 0.3 SSW 6 7 3 4 1024.1 1025.0 0.2
27/07:00pm 4.7 3.2 2.9 88 0.8 CALM 0 0 0 0 1024.2 1025.1 0.2
27/06:30pm 6.0 3.5 3.8 86 1.0 ESE 6 7 3 4 1024.1 1025.0 0.2
27/06:00pm 7.1 5.9 4.8 85 1.0 CALM 0 4 0 2 1024.0 1024.9 0.2
27/05:30pm 7.6 5.2 4.2 79 1.5 NNW 6 7 3 4 1023.9 1024.8 0.2
27/05:00pm 8.3 5.0 4.5 77 1.7 ENE 11 13 6 7 1023.6 1024.5 0.2
27/04:30pm 9.0 5.3 4.4 73 2.1 NE 13 20 7 11 1023.5 1024.4 0.2
27/04:00pm 9.4 4.5 4.2 70 2.4 ENE 19 24 10 13 1023.4 1024.3 0.2
27/03:30pm 9.9 5.8 4.3 68 2.6 NE 15 20 8 11 1023.4 1024.3 0.2
27/03:00pm 10.0 5.5 4.4 68 2.6 NE 17 22 9 12 1023.5 1024.4 0.2
27/02:30pm 10.1 5.6 4.3 67 2.7 NE 17 20 9 11 1023.6 1024.5 0.2
27/02:00pm 10.3 6.6 4.7 68 2.6 NE 13 19 7 10 1023.9 1024.8 0.2
27/01:30pm 9.9 6.6 4.7 70 2.4 ENE 11 17 6 9 1024.3 1025.2 0.2
27/01:00pm 8.2 7.3 6.0 86 1.0 CALM 0 6 0 3 1024.7 1025.7 0.2
27/12:30pm 6.7 5.3 5.7 93 0.5 E 2 7 1 4 1025.2 1026.1 0.2
27/12:00pm 5.2 4.1 5.1 99 0.0 CALM 0 0 0 0 1025.6 1026.5 0.2
27/11:52am 5.0 3.9 4.9 99 0.0 CALM 0 0 0 0 1025.7 1026.6 0.2
27/11:30am 3.4 2.0 3.3 99 0.0 CALM 0 0 0 0 1026.1 1027.1 0.2
27/11:00am 1.8 -0.7 1.7 99 0.0 SSE 4 7 2 4 1026.4 1027.4 0.2
27/10:30am 0.5 -2.2 0.4 99 0.0 SSE 4 7 2 4 1027.0 1027.9 0.2
27/10:00am -0.6 -2.7 -0.7 99 0.0 CALM 0 0 0 0 1027.3 1028.3 0.2
27/09:45am -0.9 -3.0 -1.0 99 0.0 CALM 0 0 0 0 1027.2 1028.1 0.2
27/09:30am -1.2 -3.4 -1.3 99 0.0 CALM 0 6 0 3 1027.4 1028.4 0.2
27/09:00am -1.9 -4.2 -2.2 98 0.0 CALM 0 0 0 0 1027.1 1028.0 0.2
27/08:30am -2.9 -5.7 -3.2 98 0.0 SSE 2 6 1 3 1026.8 1027.7 0.2
27/08:00am -3.3 -5.8 -3.6 98 0.0 CALM 0 0 0 0 1026.7 1027.6 0.2
27/07:30am -3.6 -6.1 -4.0 97 0.0 CALM 0 0 0 0 1026.6 1027.5 0.2
27/07:00am -3.5 -6.0 -3.9 97 0.0 CALM 0 0 0 0 1026.6 1027.5 0.2
27/06:30am -3.5 -6.0 -3.9 97 0.0 CALM 0 0 0 0 1026.6 1027.5 0.2
27/06:00am -3.6 -6.1 -4.0 97 0.0 CALM 0 0 0 0 1026.3 1027.3 0.2
27/05:30am -3.4 -5.9 -3.8 97 0.0 CALM 0 0 0 0 1026.2 1027.2 0.2
27/05:00am -3.1 -5.5 -3.4 98 0.0 CALM 0 0 0 0 1026.0 1027.0 0.2
27/04:30am -2.9 -5.3 -3.2 98 0.0 CALM 0 0 0 0 1025.8 1026.7 0.2
27/04:00am -2.9 -5.3 -3.2 98 0.0 CALM 0 0 0 0 1025.7 1026.6 0.2
27/03:30am -3.2 -5.6 -3.5 98 0.0 CALM 0 0 0 0 1025.7 1026.6 0.2
27/03:00am -3.5 -6.0 -3.8 98 -0.1 CALM 0 0 0 0 1025.7 1026.6 0.2
27/02:30am -3.3 -5.8 -3.6 98 0.0 CALM 0 0 0 0 1025.8 1026.7 0.2
27/02:00am -4.1 -6.7 -4.5 97 0.0 CALM 0 0 0 0 1026.0 1027.0 0.2
27/01:30am -4.3 -6.9 -5.1 94 0.1 CALM 0 0 0 0 1025.7 1026.6 0.2
27/01:24am -4.4 -7.0 -5.2 94 0.1 CALM 0 0 0 0 1025.7 1026.6 0.2
27/01:06am -4.1 -7.8 -4.8 95 0.1 SSE 6 7 3 4 1025.4 1026.3 0.2
27/01:00am -4.4 -7.8 -5.4 93 0.1 ENE 4 7 2 4 1025.3 1026.2 0.2
27/12:45am -4.3 -7.3 -5.4 92 0.2 SW 2 7 1 4 1025.5 1026.4 0.2
27/12:30am -4.0 -6.6 -4.8 94 0.1 CALM 0 0 0 0 1025.4 1026.3 0.2
27/12:11am -4.0 -6.6 -5.1 92 0.2 CALM 0 0 0 0 1025.6 1026.5 0.2
27/12:00am -3.7 -6.7 -4.7 93 0.2 SSW 2 6 1 3 1025.7 1026.6 0.2
 
Date/Time
EST
Temp
°C
App
Temp
°C
Dew
Point
°C
Rel
Hum
%
Delta-T
°C
Wind Press
QNH
hPa
Press
MSL
hPa
Rain since
9am
mm
Dir  Spd
km/h
Gust
km/h
Spd
kts
Gust
kts
26/11:52pm -3.7 -6.3 -4.5 94 0.1 CALM 0 0 0 0 1025.6 1026.5 0.2
26/11:30pm -3.2 -5.7 -3.6 97 0.0 CALM 0 0 0 0 1025.7 1026.6 0.2
26/11:00pm -2.8 -5.2 -3.5 95 0.1 CALM 0 0 0 0 1025.8 1026.7 0.2
26/10:30pm -3.0 -7.2 -3.7 95 0.1 ESE 9 13 5 7 1025.6 1026.5 0.2
26/10:22pm -3.9 -7.7 -5.3 90 0.3 NNE 6 13 3 7 1025.7 1026.6 0.2
26/10:00pm -2.4 -4.8 -3.2 94 0.2 CALM 0 0 0 0 1025.1 1026.0 0.2
26/09:53pm -1.3 -3.5 -1.9 96 0.2 CALM 0 0 0 0 1025.1 1026.0 0.2
26/09:30pm -1.6 -5.1 -2.6 93 0.3 NNW 6 6 3 3 1025.0 1025.9 0.2
26/09:00pm -0.9 -3.1 -1.7 94 0.2 CALM 0 0 0 0 1024.9 1025.8 0.2
26/08:30pm 0.6 -1.8 -0.1 95 0.3 N 2 7 1 4 1024.9 1025.8 0.2
26/08:00pm 0.2 -2.0 -1.4 89 0.6 CALM 0 0 0 0 1024.9 1025.8 0.2
26/07:30pm 1.0 -1.1 -1.1 86 0.8 CALM 0 7 0 4 1024.6 1025.6 0.2
26/07:00pm 2.9 -0.1 0.8 86 0.8 NNW 6 9 3 5 1024.4 1025.3 0.2
26/06:30pm 3.7 2.0 1.6 86 0.9 CALM 0 0 0 0 1023.9 1024.8 0.2
26/06:00pm 3.7 0.8 1.3 84 1.0 NW 6 9 3 5 1023.5 1024.4 0.2
26/05:30pm 5.5 1.3 1.8 77 1.5 NW 13 13 7 7 1022.9 1023.8 0.2
26/05:00pm 6.8 2.3 1.9 71 2.1 WNW 15 17 8 9 1022.5 1023.4 0.2
26/04:30pm 9.3 4.8 2.4 62 3.0 WNW 15 19 8 10 1022.4 1023.3 0.2
26/04:00pm 10.6 5.7 2.2 56 3.7 WNW 17 22 9 12 1022.3 1023.2 0.2
26/03:30pm 11.3 5.9 2.3 54 4.0 WNW 20 28 11 15 1022.2 1023.1 0.0
26/03:00pm 11.5 6.0 2.0 52 4.2 W 20 26 11 14 1021.9 1022.7 0.0
26/02:30pm 11.9 6.0 1.8 50 4.5 WNW 22 28 12 15 1021.8 1022.6 0.0
26/02:00pm 11.6 5.8 2.4 53 4.1 WNW 22 28 12 15 1021.6 1022.4 0.0
26/01:30pm 11.8 6.3 2.0 51 4.4 WNW 20 28 11 15 1021.6 1022.4 0.0
26/01:00pm 11.5 5.6 2.0 52 4.2 WNW 22 30 12 16 1021.8 1022.6 0.0
26/12:30pm 11.0 5.6 2.3 55 3.9 W 20 30 11 16 1021.9 1022.7 0.0
26/12:00pm 10.9 5.5 2.7 57 3.7 W 20 30 11 16 1022.1 1023.0 0.0
26/11:30am 10.2 5.9 3.0 61 3.2 W 15 20 8 11 1022.4 1023.3 0.0
26/11:00am 9.6 4.4 2.7 62 3.0 WNW 19 28 10 15 1022.3 1023.2 0.0
26/10:30am 8.5 4.9 2.9 68 2.5 W 11 17 6 9 1023.0 1023.9 0.0
26/10:00am 8.1 3.9 3.8 74 1.9 W 15 20 8 11 1022.6 1023.5 0.0
26/09:30am 7.0 1.5 4.0 81 1.3 WNW 22 28 12 15 1022.3 1023.2 0.0
26/09:00am 6.3 2.5 4.1 86 1.0 WNW 13 19 7 10 1022.3 1023.2 0.0
26/08:30am 5.0 0.7 3.5 90 0.6 WNW 15 19 8 10 1021.9 1022.7 0.0
26/08:00am 2.7 0.2 1.7 93 0.4 W 4 7 2 4 1021.4 1022.3 0.0
26/07:39am 2.0 -1.6 0.8 92 0.5 WNW 9 13 5 7 1021.4 1022.3 0.0
26/07:30am 2.6 -0.4 1.7 94 0.4 NW 7 13 4 7 1021.1 1022.0 0.0
26/07:14am 2.6 -0.2 1.9 95 0.3 NE 6 11 3 6 1020.9 1021.8 0.0
26/07:00am 1.5 -1.6 -0.1 89 0.6 E 6 11 3 6 1020.8 1021.7 0.0
26/06:30am 2.1 -2.9 1.1 93 0.4 WNW 17 30 9 16 1020.0 1020.8 0.0
26/06:00am 2.9 -3.7 1.9 93 0.4 NW 26 30 14 16 1019.9 1020.7 0.0
26/05:30am 2.6 -3.6 1.9 95 0.3 WNW 24 26 13 14 1019.7 1020.6 0.0
26/05:00am 1.1 -4.1 0.2 94 0.3 WNW 17 17 9 9 1019.9 1020.7 0.0
26/04:30am 1.8 -2.8 1.4 97 0.2 NW 15 19 8 10 1019.5 1020.4 0.0
26/04:00am 2.0 -2.3 0.8 92 0.5 WNW 13 15 7 8 1019.3 1020.1 0.0
26/03:30am 2.2 -1.6 1.8 97 0.2 NW 11 17 6 9 1019.2 1020.0 0.0
26/03:00am 1.5 -1.8 0.3 92 0.5 N 7 9 4 5 1019.3 1020.1 0.0
26/02:30am 2.5 0.3 1.3 92 0.5 NNE 2 7 1 4 1019.1 1019.9 0.0
26/02:00am 2.7 -1.9 1.4 91 0.5 WNW 15 17 8 9 1018.9 1019.7 0.0
26/01:30am 3.0 -0.3 0.4 83 1.0 WNW 7 11 4 6 1019.0 1019.8 0.0
26/01:00am 4.8 1.5 2.7 86 0.9 SSW 9 22 5 12 1019.1 1019.9 0.0
26/12:30am 5.4 -0.8 2.4 81 1.3 W 24 39 13 21 1019.1 1019.9 0.0
26/12:00am 5.0 -1.9 2.7 85 1.0 WNW 28 32 15 17 1018.7 1019.5 0.0
 
Date/Time
EST
Temp
°C
App
Temp
°C
Dew
Point
°C
Rel
Hum
%
Delta-T
°C
Wind Press
QNH
hPa
Press
MSL
hPa
Rain since
9am
mm
Dir  Spd
km/h
Gust
km/h
Spd
kts
Gust
kts
25/11:30pm 4.5 -1.2 2.7 88 0.8 WNW 22 30 12 16 1018.8 1019.6 0.0
25/11:00pm 3.8 -1.5 2.0 88 0.7 WNW 19 24 10 13 1019.3 1020.1 0.0
25/10:30pm 3.2 -1.8 1.1 86 0.8 W 17 20 9 11 1019.3 1020.1 0.0
25/10:00pm 4.9 -0.8 2.6 85 1.0 WNW 22 30 12 16 1019.0 1019.8 0.0
25/09:30pm 5.0 -0.8 2.2 82 1.2 WNW 22 30 12 16 1018.8 1019.6 0.0
25/09:00pm 5.0 0.2 2.4 83 1.1 W 17 22 9 12 1018.6 1019.4 0.0
25/08:30pm 5.5 0.1 2.5 81 1.3 W 20 28 11 15 1018.4 1019.2 0.0
25/08:00pm 5.2 -0.2 2.6 83 1.1 W 20 30 11 16 1018.4 1019.2 0.0
25/07:30pm 4.0 -0.2 1.5 84 1.0 WNW 13 17 7 9 1018.0 1018.9 0.0
25/07:00pm 5.0 -0.3 1.8 80 1.3 W 19 24 10 13 1017.6 1018.4 0.0
25/06:30pm 5.7 0.2 2.0 77 1.6 W 20 24 11 13 1017.5 1018.3 0.0
25/06:00pm 6.0 0.5 2.1 76 1.6 WNW 20 24 11 13 1017.1 1017.9 0.0
25/05:30pm 6.9 1.5 2.2 72 2.0 WNW 20 30 11 16 1017.0 1017.8 0.0
25/05:00pm 7.4 1.6 2.3 70 2.2 WNW 22 26 12 14 1017.1 1017.9 0.0
25/04:30pm 8.5 1.1 2.1 64 2.8 W 30 41 16 22 1016.6 1017.3 0.0
25/04:00pm 9.0 1.0 1.9 61 3.1 WNW 33 39 18 21 1016.4 1017.2 0.0
25/03:30pm 9.9 1.5 1.8 57 3.5 WNW 35 52 19 28 1016.0 1016.8 0.0
25/03:01pm 10.4 2.0 1.8 55 3.8 W 35 54 19 29 1016.0 1016.8 0.0
25/03:00pm 10.5 2.2 1.9 55 3.8 W 35 44 19 24 1016.0 1016.8 0.0
25/02:30pm 10.7 3.2 1.5 53 4.0 WNW 30 37 16 20 1016.2 1017.0 0.0
25/02:00pm 10.6 2.2 1.4 53 4.0 W 35 48 19 26 1016.2 1017.0 0.0
25/01:30pm 11.1 3.2 1.1 50 4.3 W 32 41 17 22 1016.2 1017.0 0.0
25/01:00pm 11.4 3.3 0.8 48 4.6 W 33 46 18 25 1016.6 1017.3 0.0
25/12:30pm 10.6 2.4 0.1 48 4.4 W 33 46 18 25 1016.7 1017.4 0.0
25/12:00pm 10.6 2.3 -0.2 47 4.5 W 33 44 18 24 1016.9 1017.7 0.0
25/11:30am 9.5 2.2 0.1 52 3.9 W 28 39 15 21 1017.3 1018.1 0.0
25/11:00am 8.5 0.4 0.0 55 3.5 WNW 32 39 17 21 1017.8 1018.6 0.0
25/10:30am 7.9 0.2 0.2 58 3.2 W 30 41 16 22 1017.9 1018.7 0.0
25/10:00am 7.1 -1.1 0.3 62 2.8 W 33 43 18 23 1018.1 1019.0 0.0
25/09:30am 6.5 0.0 0.2 64 2.6 W 24 33 13 18 1018.4 1019.2 0.0
25/09:00am 5.8 -0.7 0.2 67 2.2 W 24 35 13 19 1018.3 1019.1 0.0
25/08:30am 5.2 -0.6 0.2 70 2.0 WNW 20 30 11 16 1018.0 1018.9 0.0
25/08:00am 4.1 -1.6 -0.7 71 1.9 WNW 19 26 10 14 1017.8 1018.6 0.0
25/07:30am 2.3 -3.4 -0.6 81 1.1 WNW 19 24 10 13 1017.6 1018.4 0.0
25/07:00am 1.3 -4.1 -1.6 81 1.1 WNW 17 20 9 11 1017.4 1018.2 0.0
25/06:30am 1.5 -4.5 -1.2 82 1.0 WNW 20 22 11 12 1017.1 1017.9 0.0
25/06:00am 2.3 -3.4 -0.6 81 1.1 WNW 19 24 10 13 1016.8 1017.6 0.0
25/05:30am 2.6 -2.7 -0.3 81 1.1 WNW 17 20 9 11 1016.8 1017.6 0.0
25/05:00am 2.3 -3.5 -0.1 84 0.9 WNW 20 24 11 13 1016.8 1017.6 0.0
25/04:30am 2.8 -2.9 0.4 84 0.9 WNW 20 26 11 14 1016.7 1017.4 0.0
25/04:00am 2.8 -2.7 0.7 86 0.8 WNW 19 20 10 11 1017.0 1017.8 0.0
25/03:30am 3.3 -1.8 1.0 85 0.9 WNW 17 24 9 13 1016.9 1017.7 0.0

Other Formats:

Comma delimited format used in spreadsheet applications
http://www.bom.gov.au/fwo/IDN60801/IDN60801.95716.axf

JavaScript Object Notation format (JSON) in row-major order
http://www.bom.gov.au/fwo/IDN60801/IDN60801.95716.json